Welcome to Des Moines Iowa Weather. I am an independent private personal weather station on the Northwest Side of Des Moines, Iowa. Just East of Windsor Heights and just West of Glendale . This site is also mobile friendly.

There are no active watches, warnings or advisories


Visit our other weather sites:

Historical Data

Weather Station Setup



Weather Underground History page Text

Daily Summary for September 22, 2017 Units:  English    Metric   Both
« Previous Day
Next Day »
Daily Weekly Monthly Yearly Custom
  High: Low: Average:
Temperature: 90.6 °F 73.4 °F 80.6 °F
Dew Point: 75.0 °F 68.0 °F 71 °F
Humidity: 89 % 57 % 73 %
Wind Speed: 6.0 mph 0.0 mph 0.6 mph
Wind Gust: 13.0 mph - -
Wind:- - South
Pressure: 29.88 in 29.81 in -
Precipitation: 0.00 in    
Historical Graphs
 
 
Tabular Data for September 22, 2017
Time Temperature Dew Point Pressure Wind Wind Speed Wind Gust Humidity Rainfall Rate (Hourly)
00:09 78.2 °F 70.0 °F 29.82 in Calm   4.0 mph 77 % 0.00 in
00:24 77.9 °F 71.0 °F 29.82 in Calm   2.0 mph 78 % 0.00 in
00:39 77.6 °F 70.0 °F 29.82 in Calm     78 % 0.00 in
00:54 77.2 °F 70.0 °F 29.82 in Calm   1.0 mph 79 % 0.00 in
01:09 76.9 °F 70.0 °F 29.82 in Calm     80 % 0.00 in
01:24 76.6 °F 70.0 °F 29.83 in Calm   1.0 mph 80 % 0.00 in
01:39 76.2 °F 70.0 °F 29.83 in Calm     81 % 0.00 in
01:54 76.0 °F 70.0 °F 29.82 in Calm     82 % 0.00 in
02:09 75.9 °F 70.0 °F 29.82 in Calm   2.0 mph 82 % 0.00 in
02:24 75.8 °F 70.0 °F 29.82 in Calm   2.0 mph 82 % 0.00 in
02:39 75.8 °F 70.0 °F 29.82 in Calm   1.0 mph 83 % 0.00 in
02:54 75.9 °F 70.0 °F 29.82 in Calm   1.0 mph 83 % 0.00 in
03:09 76.0 °F 71.0 °F 29.82 in Calm   1.0 mph 83 % 0.00 in
03:24 75.9 °F 70.0 °F 29.82 in Calm     83 % 0.00 in
03:39 75.8 °F 71.0 °F 29.82 in Calm     84 % 0.00 in
03:54 75.7 °F 71.0 °F 29.82 in Calm     84 % 0.00 in
04:09 75.6 °F 71.0 °F 29.83 in Calm     84 % 0.00 in
04:24 75.5 °F 71.0 °F 29.83 in Calm   2.0 mph 85 % 0.00 in
04:39 75.5 °F 71.0 °F 29.83 in Calm   4.0 mph 85 % 0.00 in
04:54 75.6 °F 71.0 °F 29.83 in Calm   5.0 mph 85 % 0.00 in
05:09 75.6 °F 71.0 °F 29.83 in Calm   2.0 mph 85 % 0.00 in
05:24 75.5 °F 71.0 °F 29.84 in Calm     85 % 0.00 in
05:39 75.5 °F 71.0 °F 29.83 in South 1.0 mph 2.0 mph 85 % 0.00 in
05:54 75.4 °F 71.0 °F 29.84 in Calm     85 % 0.00 in
06:09 75.3 °F 71.0 °F 29.84 in Calm     85 % 0.00 in
06:24 75.1 °F 70.0 °F 29.84 in Calm     85 % 0.00 in
06:39 74.8 °F 70.0 °F 29.84 in Calm   2.0 mph 85 % 0.00 in
06:54 74.6 °F 70.0 °F 29.84 in Calm     86 % 0.00 in
07:09 74.3 °F 70.0 °F 29.84 in Calm   1.0 mph 86 % 0.00 in
07:24 73.9 °F 70.0 °F 29.84 in Calm   1.0 mph 87 % 0.00 in
07:40 73.6 °F 70.0 °F 29.85 in Calm   3.0 mph 87 % 0.00 in
07:54 73.4 °F 70.0 °F 29.85 in Calm   2.0 mph 88 % 0.00 in
08:10 73.5 °F 70.0 °F 29.85 in Calm   4.0 mph 89 % 0.00 in
08:25 73.7 °F 70.0 °F 29.85 in SW 3.0 mph 7.0 mph 88 % 0.00 in
08:40 74.1 °F 70.0 °F 29.85 in Calm   5.0 mph 88 % 0.00 in
08:55 74.6 °F 71.0 °F 29.86 in SSE 2.0 mph 4.0 mph 88 % 0.00 in
09:10 75.4 °F 71.0 °F 29.86 in West 2.0 mph 4.0 mph 87 % 0.00 in
09:25 75.9 °F 71.0 °F 29.86 in Calm   9.0 mph 85 % 0.00 in
09:40 76.5 °F 71.0 °F 29.86 in Calm   7.0 mph 84 % 0.00 in
09:55 77.3 °F 72.0 °F 29.86 in SSE 3.0 mph 9.0 mph 83 % 0.00 in
10:10 78.2 °F 72.0 °F 29.87 in SW 2.0 mph 7.0 mph 81 % 0.00 in
10:25 79.0 °F 72.0 °F 29.87 in East 1.0 mph 5.0 mph 80 % 0.00 in
10:40 79.9 °F 73.0 °F 29.87 in SW 3.0 mph 10.0 mph 78 % 0.00 in
10:55 80.7 °F 73.0 °F 29.87 in Calm   6.0 mph 76 % 0.00 in
11:10 81.8 °F 73.0 °F 29.86 in Calm   8.0 mph 74 % 0.00 in
11:25 83.3 °F 73.0 °F 29.86 in Calm   5.0 mph 72 % 0.00 in
11:40 84.6 °F 74.0 °F 29.86 in Calm   6.0 mph 70 % 0.00 in
11:55 85.2 °F 73.0 °F 29.86 in Calm   10.0 mph 66 % 0.00 in
12:10 86.4 °F 74.0 °F 29.86 in WSW 2.0 mph 7.0 mph 67 % 0.00 in
12:25 86.7 °F 74.0 °F 29.86 in North 4.0 mph 8.0 mph 66 % 0.00 in
12:41 88.1 °F 74.0 °F 29.85 in West 2.0 mph 8.0 mph 63 % 0.00 in
12:55 88.6 °F 74.0 °F 29.85 in SW 2.0 mph 7.0 mph 63 % 0.00 in
13:10 88.6 °F 73.0 °F 29.84 in West 2.0 mph 10.0 mph 61 % 0.00 in
13:26 88.9 °F 75.0 °F 29.85 in Calm   9.0 mph 63 % 0.00 in
13:41 89.7 °F 74.0 °F 29.84 in Calm   8.0 mph 60 % 0.00 in
13:56 89.9 °F 74.0 °F 29.84 in SE 1.0 mph 8.0 mph 59 % 0.00 in
14:11 90.0 °F 73.0 °F 29.83 in SSW 2.0 mph 8.0 mph 57 % 0.00 in
14:26 90.5 °F 73.0 °F 29.83 in Calm   13.0 mph 57 % 0.00 in
14:41 90.6 °F 73.0 °F 29.83 in SE 4.0 mph 8.0 mph 57 % 0.00 in
14:56 90.5 °F 74.0 °F 29.82 in Calm   9.0 mph 59 % 0.00 in
15:11 90.5 °F 74.0 °F 29.82 in SW 4.0 mph 8.0 mph 58 % 0.00 in
15:26 90.1 °F 73.0 °F 29.82 in NNE 2.0 mph 6.0 mph 57 % 0.00 in
15:41 89.6 °F 72.0 °F 29.82 in SW 2.0 mph 7.0 mph 57 % 0.00 in
15:56 89.3 °F 73.0 °F 29.81 in SSW 6.0 mph 7.0 mph 58 % 0.00 in
16:11 88.7 °F 72.0 °F 29.81 in Calm   9.0 mph 58 % 0.00 in
16:26 88.6 °F 72.0 °F 29.81 in Calm   6.0 mph 59 % 0.00 in
16:41 88.3 °F 72.0 °F 29.82 in East 4.0 mph 7.0 mph 58 % 0.00 in
16:56 87.9 °F 71.0 °F 29.82 in Calm   9.0 mph 58 % 0.00 in
17:11 87.7 °F 71.0 °F 29.82 in West 2.0 mph 6.0 mph 58 % 0.00 in
17:26 87.7 °F 71.0 °F 29.82 in South 1.0 mph 4.0 mph 58 % 0.00 in
17:41 87.4 °F 71.0 °F 29.82 in Calm   8.0 mph 58 % 0.00 in
17:56 87.0 °F 70.0 °F 29.83 in Calm   7.0 mph 57 % 0.00 in
18:11 86.6 °F 70.0 °F 29.83 in Calm   6.0 mph 58 % 0.00 in
18:26 86.1 °F 70.0 °F 29.83 in Calm   4.0 mph 58 % 0.00 in
18:41 85.7 °F 70.0 °F 29.83 in Calm   1.0 mph 59 % 0.00 in
18:56 85.0 °F 70.0 °F 29.83 in Calm   2.0 mph 60 % 0.00 in
19:11 84.5 °F 70.0 °F 29.83 in Calm   1.0 mph 61 % 0.00 in
19:26 83.9 °F 69.0 °F 29.83 in Calm     62 % 0.00 in
19:41 83.2 °F 70.0 °F 29.83 in Calm     64 % 0.00 in
19:56 82.3 °F 70.0 °F 29.83 in Calm   1.0 mph 66 % 0.00 in
20:26 80.7 °F 70.0 °F 29.85 in Calm   2.0 mph 69 % 0.00 in
20:41 80.3 °F 70.0 °F 29.85 in Calm   1.0 mph 70 % 0.00 in
20:56 79.9 °F 69.0 °F 29.85 in Calm   3.0 mph 70 % 0.00 in
21:11 79.6 °F 69.0 °F 29.86 in Calm   2.0 mph 70 % 0.00 in
21:26 79.2 °F 69.0 °F 29.86 in Calm   2.0 mph 71 % 0.00 in
21:41 78.7 °F 69.0 °F 29.86 in Calm     71 % 0.00 in
21:56 78.4 °F 69.0 °F 29.86 in Calm   2.0 mph 72 % 0.00 in
22:11 77.9 °F 69.0 °F 29.86 in Calm     73 % 0.00 in
22:26 77.5 °F 69.0 °F 29.86 in Calm     74 % 0.00 in
22:41 77.0 °F 69.0 °F 29.86 in Calm   4.0 mph 75 % 0.00 in
22:56 76.6 °F 69.0 °F 29.87 in Calm     76 % 0.00 in
23:11 76.2 °F 69.0 °F 29.87 in Calm   2.0 mph 77 % 0.00 in
23:26 76.0 °F 68.0 °F 29.87 in Calm   4.0 mph 77 % 0.00 in
23:41 75.7 °F 68.0 °F 29.88 in Calm   3.0 mph 78 % 0.00 in
23:56 75.4 °F 69.0 °F 29.88 in Calm   3.0 mph 79 % 0.00 in
Des Moines Weather and Climate
Compliments of Weather Underground - 3 mb

Script developed by  Jim McMurry - jmcmurry@mwt.net Adapted for the template by  Wim van der Kuil - Leuven-Template.eu

You find our weather info also at:

Weather Underground

Equipment we use:

Weather-station
Davis VP2 Plus

Weather-program
Davis Weatherlink.Com

Weather-server
iMac (Retina 4K, 21.5-inch, Late 2015)

Provider
Hostmonster.com

Davis VP2 Plus

Davis Weatherlink.Com

iMac (Retina 4K, 21.5-inch, Late 2015)

Hostmonster.com